My Meet Scores
Carmen Wooten, The Gymnastics Shop - MyMeetScores.com
Top100 | Top Teams | Upcoming Meets | Completed Meets | Latest | Add Scores | Help| Support | Bookmark and Share

Carmen Wooten, The Gymnastics Shop
Personal Bests
LevelVault BarsBeamFloorAA
48.8508.850 8.6508.90034.775
58.9508.200 8.6258.92533.450
AllLevels7.4005.500 4.7507.00024.650
Meet Scores
Date Meet Team Session Level Division Vault Bars Beam Floor AA
2019-02-23 Kinetic Classic 2019 The Gymnastics Shop 1 5 Older 8.325 18 8.200 16 7.350 19 7.950 18 31.825 18
2019-02-08 IGI Chicago Style 2019 The Gymnastics Shop 48 5 632 LaSalle L5 C 8.950 10 7.875 17 7.625 16 8.400 12 32.850 16
2019-01-18 2019 Bravo Classic The Gymnastics Shop 2A 5 Sr 8.375 20 7.850 26 8.625 22 8.600 23T 33.450 25
2019-01-11 St Jude Benefit Meet The Gymnastics Shop 9A 5 Sr A 8.800 10T 7.925 10 7.500 15 8.925 8 33.150 13
2018-12-07 St. Nick Invite 2018 The Gymnastics Shop 1 5 SrA 8.300 19T 6.650 21 7.150 20 7.950 19T 30.050 21
2018-11-30 Ultimate Wish Classic The Gymnastics Shop 6 5 SR A 8.300 19T 6.800 20 7.550 17T 8.175 12 30.825 18
2018-03-08 Level 4 & 5 State The Gymnastics Shop All 4 Jr E 8.850 16T 8.725 18 8.475 27 8.700 25 34.750 24T
2018-02-23 Kinetic Classic The Gymnastics Shop 6 4 Older 8.575 50T 8.850 58T 8.250 74T 8.875 67T 34.550 71T
2018-02-08 Nashville Nights 2018 The Gymnastics Shop B03 4 JrC 7.650 9 8.300 9 8.000 9T 8.650 8T 32.600 10
2018-01-26 King Arthur Invitational The Gymnastics Shop 2 4 Sr A 8.425 7 8.650 6 8.425 12 8.725 10T 34.225 8T
2018-01-12 Legacy Elite Winter Classic The Gymnastics Shop 3 4 JrA 8.350 19T 8.100 10 8.450 14 8.900 5 33.800 11
2017-12-08 St. Nick Invite The Gymnastics Shop 1 4 SrA 8.700 5 8.625 10 8.650 14 8.800 9T 34.775 9
2017-12-01 Ultimate Wish Classic The Gymnastics Shop 10 4 Sr A 8.500 8 8.400 10 8.500 13 8.900 9 34.300 10
2017-10-27 M&M's Pixie Dust Invitational The Gymnastics Shop 4 4 10 yrs. 8.025 11T 8.300 14 8.425 12 8.800 5T 33.550 12
2017-02-17 Big Classic The Gymnastics Shop B 4 Child B 8.575 23 7.800 45 8.425 47T 8.800 24T 33.600 39
2017-02-10 IGI Chicago Style Gymnastics Meet The Gymnastics Shop 621L 4 JrB 8.200 15 7.400 18 8.000 20 8.625 11 32.225 19
2017-02-03 2017 Classic Spectacular The Gymnastics Shop JO6 4 Junior 8.050 15T 7.350 19 7.950 19 8.050 17 31.400 18
2017-01-13 Legacy Elite Winter Classic The Gymnastics Shop B4 4 ChB 7.800 13 7.325 15 8.200 15 8.850 11 32.175 15
2016-12-15 2016 Hawaiian Pineapple Sanction The Gymnastics Shop 1A 4 Age 9 8.450 10T 6.550 17 7.600 17 8.250 15 30.850 17
2016-12-02 Ultimate Wish Classic The Gymnastics Shop 13 4 Jr B 8.275 19 6.450 19 8.400 20 8.550 17T 31.675 19
2016-11-11 2016 Illinois Judges Cup The Gymnastics Shop R6 4 9 Year Old 7.950 12 7.950 14 7.950 14 8.425 12 32.275 14
2016-02-05 St. Valentines Classic Elk Grove Gymnastics School 1A AllLevels All Ages 7.400 82T 5.500 87 4.750 88 7.000 79T 24.650 85
2016-01-30 2016 Flip'R Invitational Elk Grove Gymnastics School 4 4 6 to 8 7.850 8 5.750 10 7.175 10 7.250 10 28.025 10
2016-01-08 St Jude Benefit Meet Elk Grove Gymnastics School 5A 4 Jr A 7.400 22 4.000 24 6.100 24 7.250 20T 24.750 23
Get your scores on
a t-shirt, pin, or hoodie

Order by December 12

www.lazysuits.com